createdAt,value
2019-05-09T00:00:43.904Z,94894.81
2019-05-09T00:03:13.853Z,94897.17
2019-05-09T00:05:44.069Z,94897.17
2019-05-09T00:08:13.889Z,94891.81
2019-05-09T00:10:44.903Z,94864.80
2019-05-09T00:13:13.821Z,94864.80
2019-05-09T00:15:43.825Z,94878.23
2019-05-09T00:18:14.299Z,94882.48
2019-05-09T00:20:44.690Z,94886.16
2019-05-09T00:23:13.649Z,94890.14
2019-05-09T00:25:43.297Z,94884.08
2019-05-09T00:28:13.485Z,94888.02
2019-05-09T00:30:59.060Z,94887.26
2019-05-09T00:33:34.440Z,94885.44
2019-05-09T00:36:04.089Z,94883.35
2019-05-09T00:38:40.273Z,94888.31
2019-05-09T00:41:08.900Z,94884.64
2019-05-09T00:43:38.023Z,94881.48
2019-05-09T00:46:08.309Z,94885.05
2019-05-09T00:48:53.766Z,94880.88
2019-05-09T00:51:23.308Z,94886.60
2019-05-09T00:53:53.614Z,94883.45
2019-05-09T00:56:23.914Z,94880.87
2019-05-09T00:58:53.492Z,94873.32
2019-05-09T01:01:24.027Z,94869.94
2019-05-09T01:03:53.592Z,94871.30
2019-05-09T01:06:24.015Z,94862.38
2019-05-09T01:08:53.625Z,94858.20
2019-05-09T01:11:24.276Z,94864.53
2019-05-09T01:13:54.334Z,94862.85
2019-05-09T01:16:24.442Z,94865.31
2019-05-09T01:18:54.341Z,94863.52
2019-05-09T01:21:24.005Z,94858.55
2019-05-09T01:23:53.993Z,94859.53
2019-05-09T01:26:24.027Z,94865.38
2019-05-09T01:28:53.946Z,94861.81
2019-05-09T01:31:24.102Z,94860.23
2019-05-09T01:33:57.729Z,94863.59
2019-05-09T01:36:27.916Z,94857.44
2019-05-09T01:38:56.546Z,94851.47
2019-05-09T01:41:30.729Z,94851.84
2019-05-09T01:43:55.604Z,94856.91
2019-05-09T01:46:24.223Z,94851.18
2019-05-09T01:48:53.858Z,94849.03
2019-05-09T01:51:23.483Z,94856.55
2019-05-09T01:53:53.765Z,94849.01
2019-05-09T01:56:23.520Z,94851.86
2019-05-09T01:58:53.822Z,94849.88
2019-05-09T02:01:24.085Z,94846.31
2019-05-09T02:03:53.702Z,94847.87
2019-05-09T02:06:24.464Z,94844.59
2019-05-09T02:08:54.510Z,94851.44
2019-05-09T02:11:23.991Z,94851.20
2019-05-09T02:13:53.976Z,94846.14
2019-05-09T02:16:26.595Z,94846.33
2019-05-09T02:18:56.871Z,94846.11
2019-05-09T02:21:25.508Z,94851.05
2019-05-09T02:23:54.145Z,94847.34
2019-05-09T02:26:24.006Z,94849.08
2019-05-09T02:28:53.812Z,94847.39
2019-05-09T02:31:24.445Z,94851.26
2019-05-09T02:33:54.214Z,94847.95
2019-05-09T02:36:23.061Z,94846.38
2019-05-09T02:38:51.692Z,94849.60
2019-05-09T02:41:20.361Z,94847.83
2019-05-09T02:43:49.851Z,94843.77
2019-05-09T02:46:29.104Z,94846.69
2019-05-09T02:48:59.125Z,94849.89
2019-05-09T02:51:29.216Z,94850.66
2019-05-09T02:53:58.538Z,94858.54
2019-05-09T02:56:29.476Z,94853.08
2019-05-09T02:59:00.120Z,94850.30
2019-05-09T03:01:49.367Z,94851.28
2019-05-09T03:04:18.911Z,94853.88
2019-05-09T03:06:49.293Z,94851.30
2019-05-09T03:09:18.979Z,94842.28
2019-05-09T03:11:48.735Z,94844.27
2019-05-09T03:14:19.419Z,94843.90
2019-05-09T03:16:49.186Z,94843.92
2019-05-09T03:19:19.498Z,94842.81
2019-05-09T03:21:53.022Z,94842.95
2019-05-09T03:24:21.600Z,94846.45
2019-05-09T03:26:54.700Z,94842.66
2019-05-09T03:29:29.163Z,94839.12
2019-05-09T03:32:00.108Z,94841.63
2019-05-09T03:34:30.127Z,94839.36
2019-05-09T03:36:59.080Z,94842.86
2019-05-09T03:39:27.772Z,94831.27
2019-05-09T03:41:57.442Z,94836.95
2019-05-09T03:44:28.282Z,94823.53
2019-05-09T03:46:58.273Z,94838.12
2019-05-09T03:49:28.388Z,94837.85
2019-05-09T03:51:58.474Z,94833.78
2019-05-09T03:54:28.281Z,94832.77
2019-05-09T03:56:58.684Z,94835.05
2019-05-09T03:59:27.931Z,94836.95
2019-05-09T04:01:59.056Z,94836.56
2019-05-09T04:04:28.145Z,94832.52
2019-05-09T04:06:58.069Z,94834.78
2019-05-09T04:09:27.439Z,94831.09
2019-05-09T04:11:58.346Z,94830.20
2019-05-09T04:14:28.313Z,94827.21
2019-05-09T04:16:57.608Z,94827.59
2019-05-09T04:19:27.552Z,94822.58
2019-05-09T04:21:57.630Z,94815.34
2019-05-09T04:24:28.134Z,94812.75
2019-05-09T04:27:04.523Z,94802.59
2019-05-09T04:29:33.108Z,94802.59
2019-05-09T04:32:01.746Z,94815.81
2019-05-09T04:34:30.441Z,94797.66
2019-05-09T04:36:58.989Z,94807.45
2019-05-09T04:39:28.494Z,94807.45
2019-05-09T04:42:03.463Z,94809.64
2019-05-09T04:44:38.971Z,94809.64
2019-05-09T04:47:08.778Z,94801.53
2019-05-09T04:49:41.081Z,94798.44
2019-05-09T04:52:07.997Z,94798.44
2019-05-09T04:54:38.420Z,94799.43
2019-05-09T04:57:07.765Z,94798.91
2019-05-09T04:59:37.351Z,94797.84
2019-05-09T05:02:23.336Z,94797.11
2019-05-09T05:04:52.034Z,94791.84
2019-05-09T05:07:20.677Z,94798.45
2019-05-09T05:09:49.389Z,94795.58
2019-05-09T05:12:18.723Z,94781.74
2019-05-09T05:14:47.752Z,94791.09
2019-05-09T05:17:18.016Z,94772.24
2019-05-09T05:19:47.786Z,94783.44
2019-05-09T05:22:28.371Z,94759.66
2019-05-09T05:24:59.679Z,94778.66
2019-05-09T05:27:28.630Z,94757.16
2019-05-09T05:29:58.302Z,94760.55
2019-05-09T05:32:28.850Z,94774.02
2019-05-09T05:35:02.139Z,94778.22
2019-05-09T05:37:30.793Z,94778.72
2019-05-09T05:39:59.457Z,94776.08
2019-05-09T05:42:28.434Z,94780.81
2019-05-09T05:44:58.284Z,94773.54
2019-05-09T05:47:29.350Z,94768.35
2019-05-09T05:49:58.181Z,94767.41
2019-05-09T05:52:27.750Z,94757.72
2019-05-09T05:54:58.177Z,94763.52
2019-05-09T05:57:28.012Z,94763.33
2019-05-09T05:59:58.536Z,94756.09
2019-05-09T06:02:28.107Z,94760.50
2019-05-09T06:04:57.944Z,94761.75
2019-05-09T06:07:28.511Z,94766.88
2019-05-09T06:09:57.691Z,94766.64
2019-05-09T06:12:27.584Z,94761.63
2019-05-09T06:14:58.204Z,94760.58
2019-05-09T06:17:28.613Z,94754.28
2019-05-09T06:19:58.927Z,94758.89
2019-05-09T06:22:27.752Z,94757.16
2019-05-09T06:24:58.226Z,94752.97
2019-05-09T06:27:27.495Z,94756.33
2019-05-09T06:29:58.153Z,94748.98
2019-05-09T06:32:27.980Z,94742.95
2019-05-09T06:34:57.871Z,94739.51
2019-05-09T06:37:27.721Z,94735.98
2019-05-09T06:39:58.236Z,94727.84
2019-05-09T06:42:28.662Z,94727.50
2019-05-09T06:45:01.869Z,94730.08
2019-05-09T06:47:32.165Z,94732.55
2019-05-09T06:50:02.514Z,94726.20
2019-05-09T06:52:31.862Z,94727.01
2019-05-09T06:55:00.520Z,94717.59
2019-05-09T06:57:29.172Z,94722.05
2019-05-09T06:59:58.154Z,94714.83
2019-05-09T07:02:38.801Z,94711.52
2019-05-09T07:05:18.410Z,94710.08
2019-05-09T07:07:57.818Z,94703.59
2019-05-09T07:10:28.393Z,94705.61
2019-05-09T07:12:58.508Z,94707.38
2019-05-09T07:15:28.340Z,94693.55
2019-05-09T07:17:57.606Z,94694.02
2019-05-09T07:20:28.342Z,94692.11
2019-05-09T07:22:58.360Z,94690.90
2019-05-09T07:25:37.883Z,94692.03
2019-05-09T07:28:07.622Z,94684.94
2019-05-09T07:30:44.024Z,94679.44
2019-05-09T07:33:18.890Z,94676.58
2019-05-09T07:35:47.739Z,94676.64
2019-05-09T07:38:18.041Z,94665.39
2019-05-09T07:40:47.800Z,94670.98
2019-05-09T07:43:17.975Z,94672.38
2019-05-09T07:46:08.885Z,94668.39
2019-05-09T07:48:38.772Z,94664.13
2019-05-09T07:51:08.049Z,94668.88
2019-05-09T07:53:38.034Z,94663.94
2019-05-09T07:56:08.010Z,94660.88
2019-05-09T07:58:37.741Z,94658.69
2019-05-09T08:01:08.479Z,94658.69
2019-05-09T08:03:38.480Z,94659.55
2019-05-09T08:06:08.636Z,94658.86
2019-05-09T08:08:38.587Z,94655.20
2019-05-09T08:11:08.818Z,94647.34
2019-05-09T08:13:39.244Z,94648.14
2019-05-09T08:16:14.123Z,94647.38
2019-05-09T08:18:38.594Z,94641.80
2019-05-09T08:21:08.516Z,94631.50
2019-05-09T08:23:38.020Z,94632.12
2019-05-09T08:26:08.770Z,94632.59
2019-05-09T08:28:38.984Z,94630.78
2019-05-09T08:31:08.435Z,94630.75
2019-05-09T08:33:38.050Z,94623.86
2019-05-09T08:36:08.608Z,94621.45
2019-05-09T08:38:38.928Z,94619.79
2019-05-09T08:41:12.855Z,94625.59
2019-05-09T08:43:41.879Z,94625.78
2019-05-09T08:46:11.433Z,94625.45
2019-05-09T08:48:40.301Z,94621.05
2019-05-09T08:51:18.024Z,94617.24
2019-05-09T08:53:48.220Z,94616.98
2019-05-09T08:56:17.774Z,94612.26
2019-05-09T08:58:48.485Z,94604.66
2019-05-09T09:01:27.325Z,94614.86
2019-05-09T09:03:48.465Z,94611.00
2019-05-09T09:06:18.351Z,94612.73
2019-05-09T09:08:48.287Z,94604.63
2019-05-09T09:11:18.737Z,94601.70
2019-05-09T09:13:48.335Z,94599.47
2019-05-09T09:16:22.095Z,94595.94
2019-05-09T09:18:48.179Z,94595.34
2019-05-09T09:21:18.364Z,94589.50
2019-05-09T09:23:50.600Z,94593.57
2019-05-09T09:26:18.365Z,94588.46
2019-05-09T09:28:48.428Z,94588.34
2019-05-09T09:31:18.018Z,94585.52
2019-05-09T09:33:47.981Z,94588.83
2019-05-09T09:36:17.852Z,94588.53
2019-05-09T09:38:48.089Z,94586.17
2019-05-09T09:41:18.179Z,94583.19
2019-05-09T09:43:47.772Z,94575.44
2019-05-09T09:46:18.237Z,94583.63
2019-05-09T09:48:47.989Z,94578.42
2019-05-09T09:51:18.670Z,94573.69
2019-05-09T09:53:48.914Z,94577.30
2019-05-09T09:56:21.731Z,94562.83
2019-05-09T09:58:49.825Z,94564.88
2019-05-09T10:01:20.111Z,94556.17
2019-05-09T10:03:50.407Z,94548.70
2019-05-09T10:06:19.109Z,94553.78
2019-05-09T10:08:49.016Z,94545.51
2019-05-09T10:11:18.076Z,94542.73
2019-05-09T10:13:48.049Z,94545.81
2019-05-09T10:16:33.962Z,94546.63
2019-05-09T10:19:04.283Z,94536.42
2019-05-09T10:21:34.576Z,94533.89
2019-05-09T10:24:03.256Z,94523.33
2019-05-09T10:26:31.980Z,94533.38
2019-05-09T10:29:00.645Z,94532.67
2019-05-09T10:31:29.342Z,94527.53
2019-05-09T10:33:58.213Z,94528.20
2019-05-09T10:36:27.892Z,94531.27
2019-05-09T10:38:58.438Z,94526.55
2019-05-09T10:41:27.213Z,94531.42
2019-05-09T10:44:08.355Z,94528.83
2019-05-09T10:46:57.260Z,94525.48
2019-05-09T10:49:21.481Z,94527.12
2019-05-09T10:51:50.139Z,94530.56
2019-05-09T10:54:18.895Z,94535.58
2019-05-09T10:56:48.689Z,94524.50
2019-05-09T10:59:18.294Z,94525.83
2019-05-09T11:01:49.661Z,94519.66
2019-05-09T11:04:18.069Z,94515.19
2019-05-09T11:06:46.906Z,94510.34
2019-05-09T11:09:18.031Z,94511.69
2019-05-09T11:11:48.305Z,94520.91
2019-05-09T11:14:32.732Z,94519.45
2019-05-09T11:16:51.118Z,94517.33
2019-05-09T11:19:18.404Z,94520.89
2019-05-09T11:21:47.840Z,94525.23
2019-05-09T11:24:18.814Z,94524.92
2019-05-09T11:26:48.094Z,94517.79
2019-05-09T11:29:18.747Z,94508.25
2019-05-09T11:31:47.810Z,94511.98
2019-05-09T11:34:18.667Z,94510.45
2019-05-09T11:36:49.617Z,94512.25
2019-05-09T11:39:35.247Z,94511.77
2019-05-09T11:41:48.788Z,94511.93
2019-05-09T11:44:18.424Z,94519.05
2019-05-09T11:46:47.787Z,94516.59
2019-05-09T11:49:17.943Z,94517.48
2019-05-09T11:51:48.265Z,94517.07
2019-05-09T11:54:19.380Z,94519.48
2019-05-09T11:56:48.170Z,94518.77
2019-05-09T11:59:18.884Z,94511.56
2019-05-09T12:01:48.261Z,94510.77
2019-05-09T12:04:18.720Z,94508.47
2019-05-09T12:06:49.341Z,94513.48
2019-05-09T12:09:18.629Z,94506.39
2019-05-09T12:11:48.320Z,94514.53
2019-05-09T12:14:17.205Z,94514.27
2019-05-09T12:16:48.062Z,94515.31
2019-05-09T12:19:17.995Z,94516.41
2019-05-09T12:21:48.136Z,94519.59
2019-05-09T12:24:18.391Z,94524.35
2019-05-09T12:26:48.171Z,94519.67
2019-05-09T12:29:19.528Z,94511.70
2019-05-09T12:31:48.796Z,94514.95
2019-05-09T12:34:19.543Z,94509.00
2019-05-09T12:36:49.555Z,94511.09
2019-05-09T12:39:19.027Z,94505.84
2019-05-09T12:41:48.574Z,94502.44
2019-05-09T12:44:18.251Z,94496.44
2019-05-09T12:46:48.732Z,94499.45
2019-05-09T12:49:18.993Z,94493.39
2019-05-09T12:51:47.974Z,94484.67
2019-05-09T12:54:18.912Z,94477.25
2019-05-09T12:56:48.569Z,94473.33
2019-05-09T12:59:18.803Z,94472.27
2019-05-09T13:01:49.114Z,94464.88
2019-05-09T13:04:18.111Z,94467.33
2019-05-09T13:06:48.933Z,94463.69
2019-05-09T13:09:17.889Z,94456.84
2019-05-09T13:11:48.211Z,94456.31
2019-05-09T13:14:19.212Z,94451.36
2019-05-09T13:16:53.743Z,94449.57
2019-05-09T13:19:24.807Z,94438.56
2019-05-09T13:21:53.479Z,94426.57
2019-05-09T13:24:22.116Z,94430.01
2019-05-09T13:26:51.774Z,94427.19
2019-05-09T13:29:20.416Z,94423.53
2019-05-09T13:31:48.923Z,94409.39
2019-05-09T13:34:18.923Z,94410.17
2019-05-09T13:36:48.896Z,94409.65
2019-05-09T13:39:18.092Z,94400.98
2019-05-09T13:41:47.638Z,94406.45
2019-05-09T13:44:18.160Z,94396.98
2019-05-09T13:46:48.918Z,94389.52
2019-05-09T13:49:19.289Z,94378.67
2019-05-09T13:51:57.560Z,94379.83
2019-05-09T13:54:18.654Z,94376.20
2019-05-09T13:56:54.958Z,94372.77
2019-05-09T13:59:18.631Z,94384.66
2019-05-09T14:01:48.073Z,94376.56
2019-05-09T14:04:16.834Z,94378.82
2019-05-09T14:06:45.464Z,94378.42
2019-05-09T14:09:14.097Z,94370.86
2019-05-09T14:11:42.789Z,94385.23
2019-05-09T14:14:12.237Z,94376.78
2019-05-09T14:16:40.947Z,94379.34
2019-05-09T14:19:30.131Z,94370.67
2019-05-09T14:21:40.006Z,94374.19
2019-05-09T14:24:14.932Z,94367.95
2019-05-09T14:26:39.029Z,94369.37
2019-05-09T14:29:12.145Z,94374.17
2019-05-09T14:31:38.861Z,94380.55
2019-05-09T14:34:08.792Z,94375.53
2019-05-09T14:36:39.189Z,94375.84
2019-05-09T14:39:09.406Z,94363.30
2019-05-09T14:41:39.022Z,94358.17
2019-05-09T14:44:09.412Z,94361.77
2019-05-09T14:46:39.234Z,94365.27
2019-05-09T14:49:08.316Z,94365.19
2019-05-09T14:51:38.013Z,94365.70
2019-05-09T14:54:08.271Z,94358.41
2019-05-09T14:56:41.829Z,94351.39
2019-05-09T14:59:09.988Z,94351.97
2019-05-09T15:01:43.256Z,94342.52
2019-05-09T15:04:09.278Z,94350.89
2019-05-09T15:06:37.913Z,94354.80
2019-05-09T15:09:08.540Z,94361.09
2019-05-09T15:11:39.491Z,94362.12
2019-05-09T15:14:10.683Z,94364.47
2019-05-09T15:16:39.556Z,94358.18
2019-05-09T15:19:08.585Z,94357.92
2019-05-09T15:21:38.161Z,94349.27
2019-05-09T15:24:09.134Z,94344.05
2019-05-09T15:26:37.585Z,94345.59
2019-05-09T15:29:08.038Z,94347.95
2019-05-09T15:31:39.183Z,94348.16
2019-05-09T15:34:09.989Z,94348.31
2019-05-09T15:36:38.016Z,94349.47
2019-05-09T15:39:08.440Z,94345.28
2019-05-09T15:41:38.461Z,94334.35
2019-05-09T15:44:08.455Z,94343.22
2019-05-09T15:46:42.040Z,94341.09
2019-05-09T15:49:10.693Z,94342.86
2019-05-09T15:51:39.333Z,94341.70
2019-05-09T15:54:08.423Z,94347.36
2019-05-09T15:56:38.403Z,94345.01
2019-05-09T15:59:07.315Z,94339.73
2019-05-09T16:01:38.347Z,94333.49
2019-05-09T16:04:08.624Z,94333.77
2019-05-09T16:06:39.142Z,94324.94
2019-05-09T16:09:11.342Z,94328.27
2019-05-09T16:11:37.844Z,94334.58
2019-05-09T16:14:07.628Z,94334.30
2019-05-09T16:16:38.603Z,94326.48
2019-05-09T16:19:08.925Z,94328.73
2019-05-09T16:21:38.288Z,94332.44
2019-05-09T16:24:08.277Z,94333.77
2019-05-09T16:26:38.289Z,94332.52
2019-05-09T16:29:08.499Z,94332.53
2019-05-09T16:31:38.833Z,94326.30
2019-05-09T16:34:09.350Z,94332.28
2019-05-09T16:36:38.918Z,94339.17
2019-05-09T16:39:08.043Z,94338.59
2019-05-09T16:41:39.271Z,94331.78
2019-05-09T16:44:07.843Z,94333.52
2019-05-09T16:46:37.595Z,94334.78
2019-05-09T16:49:11.714Z,94334.52
2019-05-09T16:51:37.909Z,94330.91
2019-05-09T16:54:07.578Z,94335.30
2019-05-09T16:56:38.261Z,94334.21
2019-05-09T16:59:08.365Z,94326.88
2019-05-09T17:01:39.640Z,94332.02
2019-05-09T17:04:09.084Z,94332.78
2019-05-09T17:06:38.246Z,94340.59
2019-05-09T17:09:08.552Z,94339.70
2019-05-09T17:11:37.183Z,94342.44
2019-05-09T17:14:08.222Z,94344.41
2019-05-09T17:16:37.671Z,94348.05
2019-05-09T17:19:07.554Z,94346.50
2019-05-09T17:21:37.951Z,94349.11
2019-05-09T17:24:17.347Z,94354.00
2019-05-09T17:26:48.670Z,94348.63
2019-05-09T17:29:18.511Z,94347.30
2019-05-09T17:31:48.897Z,94349.42
2019-05-09T17:34:17.981Z,94349.03
2019-05-09T17:36:46.802Z,94343.30
2019-05-09T17:39:15.450Z,94345.87
2019-05-09T17:41:44.076Z,94337.05
2019-05-09T17:44:12.723Z,94334.43
2019-05-09T17:46:41.350Z,94338.81
2019-05-09T17:49:10.011Z,94342.44
2019-05-09T17:51:38.657Z,94346.30
2019-05-09T17:54:08.093Z,94329.42
2019-05-09T17:56:37.878Z,94334.20
2019-05-09T17:59:08.544Z,94344.68
2019-05-09T18:01:37.475Z,94333.45
2019-05-09T18:04:08.905Z,94331.40
2019-05-09T18:06:37.951Z,94321.25
2019-05-09T18:09:08.414Z,94324.81
2019-05-09T18:11:37.816Z,94326.06
2019-05-09T18:14:08.092Z,94317.98
2019-05-09T18:16:39.010Z,94310.41
2019-05-09T18:19:09.223Z,94301.23
2019-05-09T18:21:50.375Z,94310.48
2019-05-09T18:24:08.966Z,94309.79
2019-05-09T18:26:38.280Z,94308.48
2019-05-09T18:29:07.218Z,94305.64
2019-05-09T18:31:37.563Z,94301.79
2019-05-09T18:34:07.761Z,94302.02
2019-05-09T18:36:38.240Z,94308.51
2019-05-09T18:39:07.785Z,94306.19
2019-05-09T18:41:36.673Z,94313.48
2019-05-09T18:44:07.359Z,94325.42
2019-05-09T18:46:35.786Z,94336.14
2019-05-09T18:49:04.451Z,94338.61
2019-05-09T18:51:33.098Z,94337.45
2019-05-09T18:54:01.822Z,94344.98
2019-05-09T18:56:30.465Z,94341.97
2019-05-09T18:58:59.186Z,94343.88
2019-05-09T19:01:27.809Z,94348.58
2019-05-09T19:03:56.530Z,94346.39
2019-05-09T19:06:25.249Z,94345.92
2019-05-09T19:08:53.916Z,94348.86
2019-05-09T19:11:22.552Z,94342.81
2019-05-09T19:13:51.197Z,94335.33
2019-05-09T19:16:24.398Z,94333.66
2019-05-09T19:18:57.814Z,94331.52
2019-05-09T19:21:28.076Z,94326.83
2019-05-09T19:23:56.662Z,94324.98
2019-05-09T19:26:37.486Z,94328.63
2019-05-09T19:29:09.137Z,94335.66
2019-05-09T19:31:38.195Z,94329.39
2019-05-09T19:34:07.106Z,94336.34
2019-05-09T19:36:35.852Z,94344.47
2019-05-09T19:39:07.889Z,94359.52
2019-05-09T19:41:37.535Z,94362.44
2019-05-09T19:44:06.670Z,94361.38
2019-05-09T19:46:35.327Z,94366.86
2019-05-09T19:49:03.968Z,94357.23
2019-05-09T19:51:32.617Z,94349.49
2019-05-09T19:54:01.257Z,94347.30
2019-05-09T19:56:29.910Z,94340.58
2019-05-09T19:58:58.559Z,94331.37
2019-05-09T20:01:27.319Z,94336.05
2019-05-09T20:03:55.949Z,94330.47
2019-05-09T20:06:24.621Z,94334.66
2019-05-09T20:08:53.268Z,94332.75
2019-05-09T20:11:23.607Z,94338.13
2019-05-09T20:13:59.739Z,94337.66
2019-05-09T20:16:42.162Z,94330.20
2019-05-09T20:19:10.855Z,94331.90
2019-05-09T20:21:40.067Z,94335.92
2019-05-09T20:24:10.631Z,94347.73
2019-05-09T20:26:39.221Z,94338.70
2019-05-09T20:29:07.850Z,94341.12
2019-05-09T20:31:36.486Z,94351.28
2019-05-09T20:34:05.240Z,94349.81
2019-05-09T20:36:33.883Z,94349.43
2019-05-09T20:39:02.793Z,94351.58
2019-05-09T20:41:31.635Z,94344.28
2019-05-09T20:44:00.529Z,94351.58
2019-05-09T20:46:29.411Z,94351.39
2019-05-09T20:48:59.066Z,94343.59
2019-05-09T20:51:27.993Z,94347.56
2019-05-09T20:53:56.899Z,94347.28
2019-05-09T20:56:25.730Z,94347.28
2019-05-09T20:58:54.553Z,94346.75
2019-05-09T21:01:23.443Z,94350.00
2019-05-09T21:04:00.177Z,94351.05
2019-05-09T21:06:22.841Z,94347.22
2019-05-09T21:08:51.665Z,94334.34
2019-05-09T21:11:20.418Z,94331.13
2019-05-09T21:13:49.281Z,94328.86
2019-05-09T21:16:18.246Z,94323.50
2019-05-09T21:18:47.049Z,94315.37
2019-05-09T21:21:16.010Z,94315.63
2019-05-09T21:23:44.921Z,94301.40
2019-05-09T21:26:13.745Z,94309.94
2019-05-09T21:28:42.586Z,94318.02
2019-05-09T21:31:11.443Z,94308.27
2019-05-09T21:33:40.189Z,94304.02
2019-05-09T21:36:08.750Z,94305.78
2019-05-09T21:38:37.400Z,94305.50
2019-05-09T21:41:06.027Z,94302.08
2019-05-09T21:43:34.673Z,94296.52
2019-05-09T21:46:03.349Z,94295.80
2019-05-09T21:48:31.994Z,94293.86
2019-05-09T21:51:00.623Z,94298.55
2019-05-09T21:53:40.528Z,94299.47
2019-05-09T21:55:59.599Z,94297.50
2019-05-09T21:58:28.249Z,94301.96
2019-05-09T22:00:58.563Z,94305.92
2019-05-09T22:03:27.402Z,94314.71
2019-05-09T22:05:56.043Z,94314.06
2019-05-09T22:08:24.796Z,94321.22
2019-05-09T22:10:53.445Z,94323.05
2019-05-09T22:13:22.087Z,94333.05
2019-05-09T22:15:50.789Z,94338.63
2019-05-09T22:18:19.433Z,94327.91
2019-05-09T22:20:48.070Z,94328.07
2019-05-09T22:23:16.707Z,94336.48
2019-05-09T22:25:45.412Z,94339.25
2019-05-09T22:28:14.052Z,94326.67
2019-05-09T22:30:42.701Z,94336.55
2019-05-09T22:33:11.363Z,94334.98
2019-05-09T22:35:39.992Z,94320.91
2019-05-09T22:38:08.634Z,94321.20
2019-05-09T22:40:37.265Z,94301.98
2019-05-09T22:43:05.929Z,94300.95
2019-05-09T22:45:34.683Z,94299.77
2019-05-09T22:48:03.465Z,94299.61
2019-05-09T22:50:32.127Z,94296.17
2019-05-09T22:53:00.764Z,94294.17
2019-05-09T22:55:29.514Z,94292.14
2019-05-09T22:57:59.019Z,94290.55
2019-05-09T23:00:27.647Z,94294.95
2019-05-09T23:02:56.289Z,94290.38
2019-05-09T23:05:24.918Z,94287.78
2019-05-09T23:07:53.558Z,94280.47
2019-05-09T23:10:22.206Z,94276.66
2019-05-09T23:12:50.828Z,94283.50
2019-05-09T23:15:19.738Z,94273.62
2019-05-09T23:17:48.313Z,94271.39
2019-05-09T23:20:18.686Z,94272.48
2019-05-09T23:22:47.517Z,94264.17
2019-05-09T23:25:16.222Z,94281.36
2019-05-09T23:27:44.837Z,94283.38
2019-05-09T23:30:14.465Z,94251.84
2019-05-09T23:32:44.730Z,94281.67
2019-05-09T23:35:13.378Z,94286.03
2019-05-09T23:37:42.011Z,94264.77
2019-05-09T23:40:10.917Z,94256.77
2019-05-09T23:42:39.606Z,94252.03
2019-05-09T23:45:08.550Z,94259.03
2019-05-09T23:47:37.194Z,94261.84
2019-05-09T23:50:06.711Z,94253.61
2019-05-09T23:52:35.424Z,94256.61
2019-05-09T23:55:22.350Z,94255.11
2019-05-09T23:58:08.855Z,94270.64
